Flight Number: EUR1140 Duration: 2:00
Departure: Frankfurt Airport (EDDF) at 07:45 Distance: 728 Nm
Arrival: Skopje Airport (LWSK) at 09:45 Equipment: A321

Weather Information
Frankfurt / M-Flughafen, Germany (EDDF) 50-03N 008-36E 113M Aug 19, 2018 - 04:50 AM EDT / 2018.08.19 0850 UTC
Wind: Variable at 3 MPH (3 KT):0
Visibility: greater than 7 mile(s):0 Temperature: 75 F (24 C) Dew Point: 50 F (10 C) Relative Humidity: 41% Pressure (altimeter): 30.18 in. Hg (1022 hPa)
ob: EDDF 190850Z VRB03KT CAVOK 24/10 Q1022 NOSIG cycle: 9
Sunrise: 04:26 Sunset: 18:32 (UTC)

Skopje-Petrovec, Macedonia, The Republic of (LWSK) 41-58N 021-39E 239M Aug 19, 2018 - 05:00 AM EDT / 2018.08.19 0900 UTC
Wind: Variable at 2 MPH (2 KT):0
Visibility: greater than 7 mile(s):0
Sky conditions: mostly clear Temperature: 82 F (28 C) Dew Point: 60 F (16 C) Relative Humidity: 48% Pressure (altimeter): 30.06 in. Hg (1018 hPa)
ob: LWSK 190900Z VRB02KT 9999 FEW100 28/16 Q1018 NOSIG cycle: 9
Sunrise: 03:49 Sunset: 17:24 (UTC)

TAF:2018/08/19 09:39 TAF LWSK 190830Z 1909/2009 VRB02KT 9999 FEW050 PROB30 TEMPO 1912/1918 VRB15KT 9999 SHRA FEW033CB BKN040

Previous Pireps for this route
Date Aircraft Flight time Fuel used Landing rate On time
2012-11-14A32102.1912307-113No
2013-02-27A32102.2018560-524Yes
2013-08-03A32102.2724023-1226No
2014-04-18A32102.0212273-162Yes
2014-07-08A32101.5911689-213Yes
2015-08-24A32102.0511655-189Yes
2016-12-29B73702.0911623-3Charter
(pireps marked green are flown by you)

Route map